sensor_id;sensor_type;location;lat;lon;timestamp;P1;durP1;ratioP1;P2;durP2;ratioP2
20454;SDS011;10386;54.314;10.022;2023-06-10T00:02:15;10.17;;;3.80;;
20454;SDS011;10386;54.314;10.022;2023-06-10T00:04:43;7.87;;;3.03;;
20454;SDS011;10386;54.314;10.022;2023-06-10T00:07:10;10.70;;;2.90;;
20454;SDS011;10386;54.314;10.022;2023-06-10T00:09:40;7.93;;;3.20;;
20454;SDS011;10386;54.314;10.022;2023-06-10T00:12:07;10.00;;;3.27;;
20454;SDS011;10386;54.314;10.022;2023-06-10T00:14:37;8.37;;;3.20;;
20454;SDS011;10386;54.314;10.022;2023-06-10T00:17:05;8.67;;;3.47;;
20454;SDS011;10386;54.314;10.022;2023-06-10T00:19:36;7.63;;;3.00;;
20454;SDS011;10386;54.314;10.022;2023-06-10T00:22:10;12.20;;;3.87;;
20454;SDS011;10386;54.314;10.022;2023-06-10T00:24:38;9.50;;;3.53;;
20454;SDS011;10386;54.314;10.022;2023-06-10T00:27:08;11.23;;;3.17;;
20454;SDS011;10386;54.314;10.022;2023-06-10T00:29:35;11.37;;;3.50;;
20454;SDS011;10386;54.314;10.022;2023-06-10T00:32:02;6.47;;;2.90;;
20454;SDS011;10386;54.314;10.022;2023-06-10T00:34:29;5.40;;;2.80;;
20454;SDS011;10386;54.314;10.022;2023-06-10T00:36:56;8.00;;;3.10;;
20454;SDS011;10386;54.314;10.022;2023-06-10T00:39:23;10.50;;;3.50;;
20454;SDS011;10386;54.314;10.022;2023-06-10T00:41:51;6.70;;;2.80;;
20454;SDS011;10386;54.314;10.022;2023-06-10T00:44:18;9.27;;;2.97;;
20454;SDS011;10386;54.314;10.022;2023-06-10T00:46:45;8.77;;;2.80;;
20454;SDS011;10386;54.314;10.022;2023-06-10T00:49:12;11.23;;;2.80;;
20454;SDS011;10386;54.314;10.022;2023-06-10T00:51:39;11.00;;;2.80;;
20454;SDS011;10386;54.314;10.022;2023-06-10T00:54:06;6.63;;;3.17;;
20454;SDS011;10386;54.314;10.022;2023-06-10T00:56:34;10.67;;;3.37;;
20454;SDS011;10386;54.314;10.022;2023-06-10T00:59:01;12.77;;;2.73;;
20454;SDS011;10386;54.314;10.022;2023-06-10T01:01:28;12.03;;;2.70;;
20454;SDS011;10386;54.314;10.022;2023-06-10T01:03:56;9.70;;;3.07;;
20454;SDS011;10386;54.314;10.022;2023-06-10T01:09:23;7.33;;;2.80;;
20454;SDS011;10386;54.314;10.022;2023-06-10T01:12:01;9.50;;;3.27;;
20454;SDS011;10386;54.314;10.022;2023-06-10T01:14:36;6.70;;;2.20;;
20454;SDS011;10386;54.314;10.022;2023-06-10T01:17:03;9.93;;;3.20;;
20454;SDS011;10386;54.314;10.022;2023-06-10T01:19:31;5.73;;;2.60;;
20454;SDS011;10386;54.314;10.022;2023-06-10T01:22:00;5.07;;;2.40;;
20454;SDS011;10386;54.314;10.022;2023-06-10T01:24:27;8.13;;;2.80;;
20454;SDS011;10386;54.314;10.022;2023-06-10T01:26:57;9.30;;;2.60;;
20454;SDS011;10386;54.314;10.022;2023-06-10T01:29:37;7.87;;;2.17;;
20454;SDS011;10386;54.314;10.022;2023-06-10T01:32:15;3.90;;;2.57;;
20454;SDS011;10386;54.314;10.022;2023-06-10T01:34:52;6.07;;;2.40;;
20454;SDS011;10386;54.314;10.022;2023-06-10T01:37:21;11.37;;;2.80;;
20454;SDS011;10386;54.314;10.022;2023-06-10T01:39:51;6.07;;;2.53;;
20454;SDS011;10386;54.314;10.022;2023-06-10T01:42:21;10.77;;;2.30;;
20454;SDS011;10386;54.314;10.022;2023-06-10T01:44:48;7.90;;;2.30;;
20454;SDS011;10386;54.314;10.022;2023-06-10T01:47:14;6.20;;;2.60;;
20454;SDS011;10386;54.314;10.022;2023-06-10T01:49:41;4.80;;;2.77;;
20454;SDS011;10386;54.314;10.022;2023-06-10T01:52:08;7.60;;;2.43;;
20454;SDS011;10386;54.314;10.022;2023-06-10T01:54:38;9.43;;;2.00;;
20454;SDS011;10386;54.314;10.022;2023-06-10T01:57:05;6.00;;;2.10;;
20454;SDS011;10386;54.314;10.022;2023-06-10T01:59:32;7.10;;;2.03;;
20454;SDS011;10386;54.314;10.022;2023-06-10T02:01:59;7.00;;;2.10;;
20454;SDS011;10386;54.314;10.022;2023-06-10T02:04:26;8.00;;;2.40;;
20454;SDS011;10386;54.314;10.022;2023-06-10T02:06:53;4.10;;;2.00;;
20454;SDS011;10386;54.314;10.022;2023-06-10T02:09:19;7.60;;;2.20;;
20454;SDS011;10386;54.314;10.022;2023-06-10T02:11:46;9.93;;;2.23;;
20454;SDS011;10386;54.314;10.022;2023-06-10T02:14:13;6.37;;;2.20;;
20454;SDS011;10386;54.314;10.022;2023-06-10T02:16:40;11.90;;;3.13;;
20454;SDS011;10386;54.314;10.022;2023-06-10T02:19:08;10.07;;;2.63;;
20454;SDS011;10386;54.314;10.022;2023-06-10T02:21:34;9.50;;;2.43;;
20454;SDS011;10386;54.314;10.022;2023-06-10T02:24:01;6.27;;;2.30;;
20454;SDS011;10386;54.314;10.022;2023-06-10T02:26:28;11.27;;;2.50;;
20454;SDS011;10386;54.314;10.022;2023-06-10T02:28:55;6.13;;;2.00;;
20454;SDS011;10386;54.314;10.022;2023-06-10T02:31:22;7.07;;;2.10;;
20454;SDS011;10386;54.314;10.022;2023-06-10T02:33:50;10.23;;;2.23;;
20454;SDS011;10386;54.314;10.022;2023-06-10T02:36:17;6.77;;;2.40;;
20454;SDS011;10386;54.314;10.022;2023-06-10T02:38:44;9.93;;;2.77;;
20454;SDS011;10386;54.314;10.022;2023-06-10T02:41:12;9.73;;;2.20;;
20454;SDS011;10386;54.314;10.022;2023-06-10T02:43:40;6.57;;;2.37;;
20454;SDS011;10386;54.314;10.022;2023-06-10T02:46:09;5.33;;;2.17;;
20454;SDS011;10386;54.314;10.022;2023-06-10T02:48:42;5.40;;;1.73;;
20454;SDS011;10386;54.314;10.022;2023-06-10T02:51:12;5.23;;;2.43;;
20454;SDS011;10386;54.314;10.022;2023-06-10T02:53:39;5.33;;;2.13;;
20454;SDS011;10386;54.314;10.022;2023-06-10T02:56:06;5.20;;;2.00;;
20454;SDS011;10386;54.314;10.022;2023-06-10T02:58:33;7.23;;;2.37;;
20454;SDS011;10386;54.314;10.022;2023-06-10T03:01:00;5.87;;;2.33;;
20454;SDS011;10386;54.314;10.022;2023-06-10T03:03:27;7.40;;;2.23;;
20454;SDS011;10386;54.314;10.022;2023-06-10T03:05:55;14.10;;;2.67;;
20454;SDS011;10386;54.314;10.022;2023-06-10T03:08:24;3.83;;;2.30;;
20454;SDS011;10386;54.314;10.022;2023-06-10T03:10:51;7.20;;;2.50;;
20454;SDS011;10386;54.314;10.022;2023-06-10T03:13:18;9.37;;;2.23;;
20454;SDS011;10386;54.314;10.022;2023-06-10T03:15:45;10.40;;;2.23;;
20454;SDS011;10386;54.314;10.022;2023-06-10T03:18:13;11.30;;;2.20;;
20454;SDS011;10386;54.314;10.022;2023-06-10T03:20:40;5.83;;;2.00;;
20454;SDS011;10386;54.314;10.022;2023-06-10T03:23:07;10.70;;;2.47;;
20454;SDS011;10386;54.314;10.022;2023-06-10T03:25:33;8.23;;;2.10;;
20454;SDS011;10386;54.314;10.022;2023-06-10T03:28:00;9.03;;;2.20;;
20454;SDS011;10386;54.314;10.022;2023-06-10T03:30:27;8.47;;;1.70;;
20454;SDS011;10386;54.314;10.022;2023-06-10T03:32:54;2.97;;;1.93;;
20454;SDS011;10386;54.314;10.022;2023-06-10T03:35:21;3.83;;;1.90;;
20454;SDS011;10386;54.314;10.022;2023-06-10T03:37:48;6.07;;;2.10;;
20454;SDS011;10386;54.314;10.022;2023-06-10T03:40:15;10.37;;;2.33;;
20454;SDS011;10386;54.314;10.022;2023-06-10T03:42:42;5.23;;;1.97;;
20454;SDS011;10386;54.314;10.022;2023-06-10T03:45:12;7.30;;;2.10;;
20454;SDS011;10386;54.314;10.022;2023-06-10T03:47:39;8.37;;;2.23;;
20454;SDS011;10386;54.314;10.022;2023-06-10T03:50:07;5.97;;;1.70;;
20454;SDS011;10386;54.314;10.022;2023-06-10T03:52:35;8.30;;;2.00;;
20454;SDS011;10386;54.314;10.022;2023-06-10T03:55:02;8.17;;;1.73;;
20454;SDS011;10386;54.314;10.022;2023-06-10T03:57:30;11.17;;;2.13;;
20454;SDS011;10386;54.314;10.022;2023-06-10T03:59:57;4.33;;;1.93;;
20454;SDS011;10386;54.314;10.022;2023-06-10T04:02:24;8.80;;;2.20;;
20454;SDS011;10386;54.314;10.022;2023-06-10T04:04:51;7.63;;;2.40;;
20454;SDS011;10386;54.314;10.022;2023-06-10T04:07:18;6.70;;;2.00;;
20454;SDS011;10386;54.314;10.022;2023-06-10T04:09:46;7.53;;;2.10;;
20454;SDS011;10386;54.314;10.022;2023-06-10T04:12:13;4.53;;;2.20;;
20454;SDS011;10386;54.314;10.022;2023-06-10T04:14:40;5.43;;;1.70;;
20454;SDS011;10386;54.314;10.022;2023-06-10T04:17:08;8.33;;;2.10;;
20454;SDS011;10386;54.314;10.022;2023-06-10T04:19:36;7.20;;;1.97;;
20454;SDS011;10386;54.314;10.022;2023-06-10T04:22:03;5.43;;;1.70;;
20454;SDS011;10386;54.314;10.022;2023-06-10T04:24:31;9.53;;;2.20;;
20454;SDS011;10386;54.314;10.022;2023-06-10T04:26:58;6.73;;;1.77;;
20454;SDS011;10386;54.314;10.022;2023-06-10T04:29:25;3.83;;;1.57;;
20454;SDS011;10386;54.314;10.022;2023-06-10T04:31:51;6.53;;;1.83;;
20454;SDS011;10386;54.314;10.022;2023-06-10T04:34:19;7.20;;;1.80;;
20454;SDS011;10386;54.314;10.022;2023-06-10T04:36:46;4.63;;;1.77;;
20454;SDS011;10386;54.314;10.022;2023-06-10T04:39:13;5.17;;;1.50;;
20454;SDS011;10386;54.314;10.022;2023-06-10T04:41:39;8.27;;;1.80;;
20454;SDS011;10386;54.314;10.022;2023-06-10T04:44:06;8.73;;;1.90;;
20454;SDS011;10386;54.314;10.022;2023-06-10T04:46:33;7.67;;;1.70;;
20454;SDS011;10386;54.314;10.022;2023-06-10T04:49:00;7.23;;;2.13;;
20454;SDS011;10386;54.314;10.022;2023-06-10T04:51:27;5.23;;;1.80;;
20454;SDS011;10386;54.314;10.022;2023-06-10T04:53:55;6.97;;;2.27;;
20454;SDS011;10386;54.314;10.022;2023-06-10T04:56:22;8.67;;;2.30;;
20454;SDS011;10386;54.314;10.022;2023-06-10T04:58:49;6.53;;;2.00;;
20454;SDS011;10386;54.314;10.022;2023-06-10T05:01:16;5.47;;;1.67;;
20454;SDS011;10386;54.314;10.022;2023-06-10T05:03:43;8.27;;;2.00;;
20454;SDS011;10386;54.314;10.022;2023-06-10T05:06:10;7.23;;;1.90;;
20454;SDS011;10386;54.314;10.022;2023-06-10T05:08:37;7.00;;;1.77;;
20454;SDS011;10386;54.314;10.022;2023-06-10T05:11:03;7.00;;;1.93;;
20454;SDS011;10386;54.314;10.022;2023-06-10T05:13:30;8.73;;;2.17;;
20454;SDS011;10386;54.314;10.022;2023-06-10T05:15:57;6.57;;;1.70;;
20454;SDS011;10386;54.314;10.022;2023-06-10T05:18:24;5.00;;;1.50;;
20454;SDS011;10386;54.314;10.022;2023-06-10T05:20:51;10.07;;;2.33;;
20454;SDS011;10386;54.314;10.022;2023-06-10T05:23:17;5.20;;;1.60;;
20454;SDS011;10386;54.314;10.022;2023-06-10T05:25:44;9.80;;;1.80;;
20454;SDS011;10386;54.314;10.022;2023-06-10T05:28:11;4.60;;;1.77;;
20454;SDS011;10386;54.314;10.022;2023-06-10T05:30:41;7.40;;;1.87;;
20454;SDS011;10386;54.314;10.022;2023-06-10T05:33:08;8.93;;;1.90;;
20454;SDS011;10386;54.314;10.022;2023-06-10T05:35:35;3.87;;;1.60;;
20454;SDS011;10386;54.314;10.022;2023-06-10T05:38:02;5.67;;;1.60;;
20454;SDS011;10386;54.314;10.022;2023-06-10T05:40:29;4.47;;;1.83;;
20454;SDS011;10386;54.314;10.022;2023-06-10T05:42:56;5.23;;;1.70;;
20454;SDS011;10386;54.314;10.022;2023-06-10T05:45:23;3.53;;;1.70;;
20454;SDS011;10386;54.314;10.022;2023-06-10T05:47:50;6.80;;;2.00;;
20454;SDS011;10386;54.314;10.022;2023-06-10T05:50:17;9.30;;;2.60;;
20454;SDS011;10386;54.314;10.022;2023-06-10T05:52:44;6.53;;;1.60;;
20454;SDS011;10386;54.314;10.022;2023-06-10T05:55:11;6.23;;;1.90;;
20454;SDS011;10386;54.314;10.022;2023-06-10T05:57:37;6.53;;;1.87;;
20454;SDS011;10386;54.314;10.022;2023-06-10T06:00:04;12.03;;;2.23;;
20454;SDS011;10386;54.314;10.022;2023-06-10T06:02:32;8.63;;;2.47;;
20454;SDS011;10386;54.314;10.022;2023-06-10T06:04:58;5.70;;;1.97;;
20454;SDS011;10386;54.314;10.022;2023-06-10T06:07:25;8.47;;;2.40;;
20454;SDS011;10386;54.314;10.022;2023-06-10T06:09:52;5.30;;;1.80;;
20454;SDS011;10386;54.314;10.022;2023-06-10T06:12:19;5.37;;;1.80;;
20454;SDS011;10386;54.314;10.022;2023-06-10T06:14:46;3.97;;;2.20;;
20454;SDS011;10386;54.314;10.022;2023-06-10T06:17:15;7.10;;;2.03;;
20454;SDS011;10386;54.314;10.022;2023-06-10T06:19:42;6.70;;;1.70;;
20454;SDS011;10386;54.314;10.022;2023-06-10T06:22:09;7.80;;;1.83;;
20454;SDS011;10386;54.314;10.022;2023-06-10T06:24:37;11.43;;;2.40;;
20454;SDS011;10386;54.314;10.022;2023-06-10T06:27:04;6.23;;;2.23;;
20454;SDS011;10386;54.314;10.022;2023-06-10T06:29:31;5.87;;;2.00;;
20454;SDS011;10386;54.314;10.022;2023-06-10T06:32:00;7.07;;;2.03;;
20454;SDS011;10386;54.314;10.022;2023-06-10T06:34:28;10.67;;;2.60;;
20454;SDS011;10386;54.314;10.022;2023-06-10T06:36:54;10.67;;;2.10;;
20454;SDS011;10386;54.314;10.022;2023-06-10T06:39:21;5.20;;;2.30;;
20454;SDS011;10386;54.314;10.022;2023-06-10T06:41:48;8.00;;;2.40;;
20454;SDS011;10386;54.314;10.022;2023-06-10T06:44:15;8.97;;;2.30;;
20454;SDS011;10386;54.314;10.022;2023-06-10T06:46:41;8.87;;;2.20;;
20454;SDS011;10386;54.314;10.022;2023-06-10T06:49:08;5.53;;;1.90;;
20454;SDS011;10386;54.314;10.022;2023-06-10T06:51:35;6.77;;;2.00;;
20454;SDS011;10386;54.314;10.022;2023-06-10T06:54:02;6.87;;;2.67;;
20454;SDS011;10386;54.314;10.022;2023-06-10T06:56:29;7.87;;;2.57;;
20454;SDS011;10386;54.314;10.022;2023-06-10T06:58:56;6.70;;;2.20;;
20454;SDS011;10386;54.314;10.022;2023-06-10T07:01:23;8.57;;;2.57;;
20454;SDS011;10386;54.314;10.022;2023-06-10T07:03:50;9.57;;;2.30;;
20454;SDS011;10386;54.314;10.022;2023-06-10T07:06:17;12.67;;;2.43;;
20454;SDS011;10386;54.314;10.022;2023-06-10T07:08:44;7.23;;;2.57;;
20454;SDS011;10386;54.314;10.022;2023-06-10T07:11:11;6.00;;;2.43;;
20454;SDS011;10386;54.314;10.022;2023-06-10T07:13:38;11.10;;;2.47;;
20454;SDS011;10386;54.314;10.022;2023-06-10T07:16:04;6.67;;;2.40;;
20454;SDS011;10386;54.314;10.022;2023-06-10T07:18:33;7.47;;;2.63;;
20454;SDS011;10386;54.314;10.022;2023-06-10T07:20:59;10.80;;;2.90;;
20454;SDS011;10386;54.314;10.022;2023-06-10T07:23:26;10.03;;;2.50;;
20454;SDS011;10386;54.314;10.022;2023-06-10T07:25:55;9.13;;;2.47;;
20454;SDS011;10386;54.314;10.022;2023-06-10T07:28:24;11.33;;;2.70;;
20454;SDS011;10386;54.314;10.022;2023-06-10T07:30:52;5.43;;;2.10;;
20454;SDS011;10386;54.314;10.022;2023-06-10T07:33:18;10.90;;;2.40;;
20454;SDS011;10386;54.314;10.022;2023-06-10T07:35:45;12.60;;;3.13;;
20454;SDS011;10386;54.314;10.022;2023-06-10T07:38:12;6.40;;;2.77;;
20454;SDS011;10386;54.314;10.022;2023-06-10T07:40:39;11.00;;;2.27;;
20454;SDS011;10386;54.314;10.022;2023-06-10T07:43:06;8.67;;;2.27;;
20454;SDS011;10386;54.314;10.022;2023-06-10T07:45:33;7.10;;;2.67;;
20454;SDS011;10386;54.314;10.022;2023-06-10T07:48:00;7.33;;;2.30;;
20454;SDS011;10386;54.314;10.022;2023-06-10T07:50:26;8.77;;;2.60;;
20454;SDS011;10386;54.314;10.022;2023-06-10T07:52:53;10.63;;;2.40;;
20454;SDS011;10386;54.314;10.022;2023-06-10T07:55:20;10.07;;;2.20;;
20454;SDS011;10386;54.314;10.022;2023-06-10T07:57:47;6.27;;;2.50;;
20454;SDS011;10386;54.314;10.022;2023-06-10T08:00:14;10.17;;;2.23;;
20454;SDS011;10386;54.314;10.022;2023-06-10T08:02:41;11.23;;;2.60;;
20454;SDS011;10386;54.314;10.022;2023-06-10T08:05:08;5.80;;;2.47;;
20454;SDS011;10386;54.314;10.022;2023-06-10T08:07:35;8.03;;;2.63;;
20454;SDS011;10386;54.314;10.022;2023-06-10T08:10:02;11.80;;;2.60;;
20454;SDS011;10386;54.314;10.022;2023-06-10T08:12:30;9.47;;;2.50;;
20454;SDS011;10386;54.314;10.022;2023-06-10T08:14:59;11.53;;;3.27;;
20454;SDS011;10386;54.314;10.022;2023-06-10T08:17:27;12.63;;;2.80;;
20454;SDS011;10386;54.314;10.022;2023-06-10T08:19:54;9.97;;;2.83;;
20454;SDS011;10386;54.314;10.022;2023-06-10T08:22:22;9.77;;;2.43;;
20454;SDS011;10386;54.314;10.022;2023-06-10T08:24:49;11.97;;;2.60;;
20454;SDS011;10386;54.314;10.022;2023-06-10T08:27:15;9.40;;;2.87;;
20454;SDS011;10386;54.314;10.022;2023-06-10T08:29:42;11.07;;;2.97;;
20454;SDS011;10386;54.314;10.022;2023-06-10T08:32:09;13.30;;;3.13;;
20454;SDS011;10386;54.314;10.022;2023-06-10T08:34:36;9.00;;;2.70;;
20454;SDS011;10386;54.314;10.022;2023-06-10T08:37:03;10.40;;;2.73;;
20454;SDS011;10386;54.314;10.022;2023-06-10T08:39:31;18.60;;;2.97;;
20454;SDS011;10386;54.314;10.022;2023-06-10T08:44:47;10.07;;;2.50;;
20454;SDS011;10386;54.314;10.022;2023-06-10T08:47:20;12.00;;;2.80;;
20454;SDS011;10386;54.314;10.022;2023-06-10T08:49:49;6.07;;;2.17;;
20454;SDS011;10386;54.314;10.022;2023-06-10T08:52:17;8.00;;;2.60;;
20454;SDS011;10386;54.314;10.022;2023-06-10T08:54:52;9.17;;;2.70;;
20454;SDS011;10386;54.314;10.022;2023-06-10T08:57:23;9.90;;;3.17;;
20454;SDS011;10386;54.314;10.022;2023-06-10T08:59:50;8.13;;;2.87;;
20454;SDS011;10386;54.314;10.022;2023-06-10T09:02:19;8.03;;;2.30;;
20454;SDS011;10386;54.314;10.022;2023-06-10T09:04:47;8.00;;;2.67;;
20454;SDS011;10386;54.314;10.022;2023-06-10T09:07:15;15.57;;;3.27;;
20454;SDS011;10386;54.314;10.022;2023-06-10T09:09:43;9.77;;;2.67;;
20454;SDS011;10386;54.314;10.022;2023-06-10T09:12:13;13.20;;;2.70;;
20454;SDS011;10386;54.314;10.022;2023-06-10T09:14:44;9.55;;;2.33;;
20454;SDS011;10386;54.314;10.022;2023-06-10T09:17:10;13.70;;;2.30;;
20454;SDS011;10386;54.314;10.022;2023-06-10T09:19:38;14.43;;;2.92;;
20454;SDS011;10386;54.314;10.022;2023-06-10T09:22:06;10.55;;;2.30;;
20454;SDS011;10386;54.314;10.022;2023-06-10T09:24:33;9.88;;;2.53;;
20454;SDS011;10386;54.314;10.022;2023-06-10T09:27:04;10.25;;;2.70;;
20454;SDS011;10386;54.314;10.022;2023-06-10T09:29:52;9.82;;;2.47;;
20454;SDS011;10386;54.314;10.022;2023-06-10T09:32:20;9.15;;;2.35;;
20454;SDS011;10386;54.314;10.022;2023-06-10T09:34:48;8.88;;;2.88;;
20454;SDS011;10386;54.314;10.022;2023-06-10T09:37:19;10.10;;;2.50;;
20454;SDS011;10386;54.314;10.022;2023-06-10T09:40:06;4.95;;;2.33;;
20454;SDS011;10386;54.314;10.022;2023-06-10T09:42:35;8.77;;;2.67;;
20454;SDS011;10386;54.314;10.022;2023-06-10T09:45:06;7.43;;;2.33;;
20454;SDS011;10386;54.314;10.022;2023-06-10T09:47:34;7.15;;;2.45;;
20454;SDS011;10386;54.314;10.022;2023-06-10T09:50:01;8.68;;;2.53;;
20454;SDS011;10386;54.314;10.022;2023-06-10T09:52:28;9.93;;;2.85;;
20454;SDS011;10386;54.314;10.022;2023-06-10T09:55:02;8.48;;;2.95;;
20454;SDS011;10386;54.314;10.022;2023-06-10T09:57:32;10.77;;;2.65;;
20454;SDS011;10386;54.314;10.022;2023-06-10T10:00:06;9.65;;;2.88;;
20454;SDS011;10386;54.314;10.022;2023-06-10T10:02:48;10.23;;;2.72;;
20454;SDS011;10386;54.314;10.022;2023-06-10T10:05:20;8.63;;;2.55;;
20454;SDS011;10386;54.314;10.022;2023-06-10T10:07:50;9.60;;;2.30;;
20454;SDS011;10386;54.314;10.022;2023-06-10T10:10:19;10.55;;;2.25;;
20454;SDS011;10386;54.314;10.022;2023-06-10T10:12:48;11.48;;;2.30;;
20454;SDS011;10386;54.314;10.022;2023-06-10T10:15:17;11.63;;;2.60;;
20454;SDS011;10386;54.314;10.022;2023-06-10T10:17:56;6.10;;;2.45;;
20454;SDS011;10386;54.314;10.022;2023-06-10T10:20:29;7.78;;;2.60;;
20454;SDS011;10386;54.314;10.022;2023-06-10T10:22:57;15.10;;;3.05;;
20454;SDS011;10386;54.314;10.022;2023-06-10T10:25:29;13.95;;;2.58;;
20454;SDS011;10386;54.314;10.022;2023-06-10T10:28:13;17.85;;;3.10;;
20454;SDS011;10386;54.314;10.022;2023-06-10T10:30:48;12.60;;;2.50;;
20454;SDS011;10386;54.314;10.022;2023-06-10T10:33:27;11.25;;;2.42;;
20454;SDS011;10386;54.314;10.022;2023-06-10T10:36:02;8.90;;;2.35;;
20454;SDS011;10386;54.314;10.022;2023-06-10T10:38:30;8.52;;;2.60;;
20454;SDS011;10386;54.314;10.022;2023-06-10T10:40:58;6.45;;;2.45;;
20454;SDS011;10386;54.314;10.022;2023-06-10T10:43:27;7.10;;;2.42;;
20454;SDS011;10386;54.314;10.022;2023-06-10T10:45:59;8.38;;;2.20;;
20454;SDS011;10386;54.314;10.022;2023-06-10T10:48:27;8.57;;;2.65;;
20454;SDS011;10386;54.314;10.022;2023-06-10T10:51:01;9.52;;;2.28;;
20454;SDS011;10386;54.314;10.022;2023-06-10T10:53:27;8.35;;;2.40;;
20454;SDS011;10386;54.314;10.022;2023-06-10T10:55:58;11.27;;;2.25;;
20454;SDS011;10386;54.314;10.022;2023-06-10T10:58:37;11.73;;;2.40;;
20454;SDS011;10386;54.314;10.022;2023-06-10T11:01:12;6.50;;;2.47;;
20454;SDS011;10386;54.314;10.022;2023-06-10T11:03:45;9.52;;;2.78;;
20454;SDS011;10386;54.314;10.022;2023-06-10T11:06:17;5.68;;;2.03;;
20454;SDS011;10386;54.314;10.022;2023-06-10T11:08:45;12.57;;;2.45;;
20454;SDS011;10386;54.314;10.022;2023-06-10T11:11:24;16.95;;;2.92;;
20454;SDS011;10386;54.314;10.022;2023-06-10T11:16:31;9.50;;;2.80;;
20454;SDS011;10386;54.314;10.022;2023-06-10T11:19:08;9.90;;;2.28;;
20454;SDS011;10386;54.314;10.022;2023-06-10T11:21:43;15.30;;;2.90;;
20454;SDS011;10386;54.314;10.022;2023-06-10T11:24:24;11.00;;;2.55;;
20454;SDS011;10386;54.314;10.022;2023-06-10T11:26:52;11.45;;;2.45;;
20454;SDS011;10386;54.314;10.022;2023-06-10T11:29:19;7.63;;;2.30;;
20454;SDS011;10386;54.314;10.022;2023-06-10T11:31:50;12.90;;;2.60;;
20454;SDS011;10386;54.314;10.022;2023-06-10T11:34:21;8.57;;;2.58;;
20454;SDS011;10386;54.314;10.022;2023-06-10T11:36:53;9.20;;;2.47;;
20454;SDS011;10386;54.314;10.022;2023-06-10T11:39:20;7.50;;;2.22;;
20454;SDS011;10386;54.314;10.022;2023-06-10T11:41:51;10.15;;;2.28;;
20454;SDS011;10386;54.314;10.022;2023-06-10T11:44:18;10.80;;;3.00;;
20454;SDS011;10386;54.314;10.022;2023-06-10T11:46:47;8.10;;;2.05;;
20454;SDS011;10386;54.314;10.022;2023-06-10T11:49:15;7.72;;;2.28;;
20454;SDS011;10386;54.314;10.022;2023-06-10T11:51:42;11.50;;;2.83;;
20454;SDS011;10386;54.314;10.022;2023-06-10T11:54:16;7.43;;;2.22;;
20454;SDS011;10386;54.314;10.022;2023-06-10T11:56:43;14.68;;;2.70;;
20454;SDS011;10386;54.314;10.022;2023-06-10T11:59:11;16.88;;;2.88;;
20454;SDS011;10386;54.314;10.022;2023-06-10T12:01:44;10.05;;;2.33;;
20454;SDS011;10386;54.314;10.022;2023-06-10T12:04:13;14.57;;;2.53;;
20454;SDS011;10386;54.314;10.022;2023-06-10T12:09:17;12.60;;;2.38;;
20454;SDS011;10386;54.314;10.022;2023-06-10T12:12:03;13.98;;;2.80;;
20454;SDS011;10386;54.314;10.022;2023-06-10T12:20:01;9.52;;;2.45;;
20454;SDS011;10386;54.314;10.022;2023-06-10T12:22:41;9.57;;;2.33;;
20454;SDS011;10386;54.314;10.022;2023-06-10T12:25:10;10.95;;;2.60;;
20454;SDS011;10386;54.314;10.022;2023-06-10T12:27:40;5.85;;;2.30;;
20454;SDS011;10386;54.314;10.022;2023-06-10T12:30:21;15.40;;;2.97;;
20454;SDS011;10386;54.314;10.022;2023-06-10T12:32:50;8.85;;;2.50;;
20454;SDS011;10386;54.314;10.022;2023-06-10T12:35:20;5.68;;;2.30;;
20454;SDS011;10386;54.314;10.022;2023-06-10T12:37:57;10.93;;;2.55;;
20454;SDS011;10386;54.314;10.022;2023-06-10T12:40:36;10.80;;;2.47;;
20454;SDS011;10386;54.314;10.022;2023-06-10T12:43:06;13.63;;;2.47;;
20454;SDS011;10386;54.314;10.022;2023-06-10T12:45:38;8.95;;;2.60;;
20454;SDS011;10386;54.314;10.022;2023-06-10T12:48:10;10.10;;;2.63;;
20454;SDS011;10386;54.314;10.022;2023-06-10T12:50:39;8.10;;;2.15;;
20454;SDS011;10386;54.314;10.022;2023-06-10T12:53:08;10.18;;;2.45;;
20454;SDS011;10386;54.314;10.022;2023-06-10T12:55:36;9.23;;;2.63;;
20454;SDS011;10386;54.314;10.022;2023-06-10T12:58:04;5.28;;;2.10;;
20454;SDS011;10386;54.314;10.022;2023-06-10T13:00:31;10.85;;;2.60;;
20454;SDS011;10386;54.314;10.022;2023-06-10T13:03:01;8.57;;;2.83;;
20454;SDS011;10386;54.314;10.022;2023-06-10T13:05:29;11.70;;;2.80;;
20454;SDS011;10386;54.314;10.022;2023-06-10T13:07:56;7.32;;;2.65;;
20454;SDS011;10386;54.314;10.022;2023-06-10T13:10:23;10.07;;;2.80;;
20454;SDS011;10386;54.314;10.022;2023-06-10T13:12:53;11.45;;;2.85;;
20454;SDS011;10386;54.314;10.022;2023-06-10T13:15:23;8.88;;;2.60;;
20454;SDS011;10386;54.314;10.022;2023-06-10T13:17:50;11.02;;;2.80;;
20454;SDS011;10386;54.314;10.022;2023-06-10T13:20:18;9.43;;;2.97;;
20454;SDS011;10386;54.314;10.022;2023-06-10T13:22:47;8.48;;;2.38;;
20454;SDS011;10386;54.314;10.022;2023-06-10T13:25:14;8.32;;;2.47;;
20454;SDS011;10386;54.314;10.022;2023-06-10T13:27:41;8.32;;;2.40;;
20454;SDS011;10386;54.314;10.022;2023-06-10T13:30:09;7.72;;;2.55;;
20454;SDS011;10386;54.314;10.022;2023-06-10T13:32:37;7.90;;;2.50;;
20454;SDS011;10386;54.314;10.022;2023-06-10T13:35:05;6.95;;;2.38;;
20454;SDS011;10386;54.314;10.022;2023-06-10T13:37:34;9.65;;;2.75;;
20454;SDS011;10386;54.314;10.022;2023-06-10T13:40:01;8.20;;;2.90;;
20454;SDS011;10386;54.314;10.022;2023-06-10T13:42:29;10.65;;;2.85;;
20454;SDS011;10386;54.314;10.022;2023-06-10T13:44:56;11.65;;;2.67;;
20454;SDS011;10386;54.314;10.022;2023-06-10T13:47:25;11.13;;;3.10;;
20454;SDS011;10386;54.314;10.022;2023-06-10T13:49:52;10.45;;;2.85;;
20454;SDS011;10386;54.314;10.022;2023-06-10T13:52:19;10.30;;;2.95;;
20454;SDS011;10386;54.314;10.022;2023-06-10T13:54:46;10.80;;;2.78;;
20454;SDS011;10386;54.314;10.022;2023-06-10T13:57:12;9.82;;;2.72;;
20454;SDS011;10386;54.314;10.022;2023-06-10T13:59:39;10.15;;;2.55;;
20454;SDS011;10386;54.314;10.022;2023-06-10T14:02:06;10.57;;;2.97;;
20454;SDS011;10386;54.314;10.022;2023-06-10T14:04:33;8.50;;;2.90;;
20454;SDS011;10386;54.314;10.022;2023-06-10T14:07:00;11.55;;;2.78;;
20454;SDS011;10386;54.314;10.022;2023-06-10T14:09:27;9.05;;;2.47;;
20454;SDS011;10386;54.314;10.022;2023-06-10T14:11:54;11.43;;;2.42;;
20454;SDS011;10386;54.314;10.022;2023-06-10T14:14:21;9.80;;;2.75;;
20454;SDS011;10386;54.314;10.022;2023-06-10T14:16:49;7.05;;;2.00;;
20454;SDS011;10386;54.314;10.022;2023-06-10T14:19:16;8.27;;;2.78;;
20454;SDS011;10386;54.314;10.022;2023-06-10T14:21:43;9.82;;;2.78;;
20454;SDS011;10386;54.314;10.022;2023-06-10T14:24:10;4.88;;;2.20;;
20454;SDS011;10386;54.314;10.022;2023-06-10T14:26:37;7.13;;;2.40;;
20454;SDS011;10386;54.314;10.022;2023-06-10T14:29:06;10.35;;;2.67;;
20454;SDS011;10386;54.314;10.022;2023-06-10T14:31:33;8.70;;;2.50;;
20454;SDS011;10386;54.314;10.022;2023-06-10T14:34:00;10.40;;;2.53;;
20454;SDS011;10386;54.314;10.022;2023-06-10T14:36:27;8.90;;;2.97;;
20454;SDS011;10386;54.314;10.022;2023-06-10T14:38:53;9.65;;;2.35;;
20454;SDS011;10386;54.314;10.022;2023-06-10T14:41:20;7.00;;;2.35;;
20454;SDS011;10386;54.314;10.022;2023-06-10T14:43:48;6.93;;;2.50;;
20454;SDS011;10386;54.314;10.022;2023-06-10T14:46:15;3.97;;;2.35;;
20454;SDS011;10386;54.314;10.022;2023-06-10T14:48:43;7.50;;;2.50;;
20454;SDS011;10386;54.314;10.022;2023-06-10T14:51:10;9.20;;;2.50;;
20454;SDS011;10386;54.314;10.022;2023-06-10T14:53:37;12.45;;;3.03;;
20454;SDS011;10386;54.314;10.022;2023-06-10T14:56:04;8.88;;;2.50;;